sensor_id;sensor_type;location;lat;lon;timestamp;P1;durP1;ratioP1;P2;durP2;ratioP2
3121;SDS011;1571;52.524;14.104;2023-05-07T00:01:14;19.90;;;17.47;;
3121;SDS011;1571;52.524;14.104;2023-05-07T00:03:44;23.10;;;18.00;;
3121;SDS011;1571;52.524;14.104;2023-05-07T00:06:14;18.27;;;16.03;;
3121;SDS011;1571;52.524;14.104;2023-05-07T00:08:43;24.03;;;18.47;;
3121;SDS011;1571;52.524;14.104;2023-05-07T00:11:12;20.97;;;17.87;;
3121;SDS011;1571;52.524;14.104;2023-05-07T00:13:40;21.70;;;18.57;;
3121;SDS011;1571;52.524;14.104;2023-05-07T00:16:08;25.77;;;19.60;;
3121;SDS011;1571;52.524;14.104;2023-05-07T00:18:36;22.53;;;18.80;;
3121;SDS011;1571;52.524;14.104;2023-05-07T00:21:04;21.37;;;17.50;;
3121;SDS011;1571;52.524;14.104;2023-05-07T00:23:33;20.17;;;17.57;;
3121;SDS011;1571;52.524;14.104;2023-05-07T00:26:02;22.07;;;17.67;;
3121;SDS011;1571;52.524;14.104;2023-05-07T00:28:31;20.03;;;17.50;;
3121;SDS011;1571;52.524;14.104;2023-05-07T00:30:59;20.97;;;17.77;;
3121;SDS011;1571;52.524;14.104;2023-05-07T00:33:27;23.63;;;17.53;;
3121;SDS011;1571;52.524;14.104;2023-05-07T00:35:55;20.90;;;18.00;;
3121;SDS011;1571;52.524;14.104;2023-05-07T00:38:24;20.27;;;17.97;;
3121;SDS011;1571;52.524;14.104;2023-05-07T00:40:52;21.07;;;18.97;;
3121;SDS011;1571;52.524;14.104;2023-05-07T00:43:21;23.00;;;18.73;;
3121;SDS011;1571;52.524;14.104;2023-05-07T00:45:50;21.47;;;19.10;;
3121;SDS011;1571;52.524;14.104;2023-05-07T00:48:19;19.57;;;17.37;;
3121;SDS011;1571;52.524;14.104;2023-05-07T00:50:47;21.53;;;19.23;;
3121;SDS011;1571;52.524;14.104;2023-05-07T00:53:15;28.23;;;18.70;;
3121;SDS011;1571;52.524;14.104;2023-05-07T00:55:44;22.00;;;18.23;;
3121;SDS011;1571;52.524;14.104;2023-05-07T00:58:13;26.67;;;18.83;;
3121;SDS011;1571;52.524;14.104;2023-05-07T01:00:42;19.23;;;16.67;;
3121;SDS011;1571;52.524;14.104;2023-05-07T01:03:11;21.27;;;19.00;;
3121;SDS011;1571;52.524;14.104;2023-05-07T01:05:39;21.63;;;19.07;;
3121;SDS011;1571;52.524;14.104;2023-05-07T01:08:09;21.30;;;17.87;;
3121;SDS011;1571;52.524;14.104;2023-05-07T01:10:38;22.63;;;19.30;;
3121;SDS011;1571;52.524;14.104;2023-05-07T01:13:09;21.20;;;19.03;;
3121;SDS011;1571;52.524;14.104;2023-05-07T01:15:39;23.03;;;20.17;;
3121;SDS011;1571;52.524;14.104;2023-05-07T01:18:09;20.67;;;18.33;;
3121;SDS011;1571;52.524;14.104;2023-05-07T01:20:38;20.33;;;17.93;;
3121;SDS011;1571;52.524;14.104;2023-05-07T01:23:08;22.40;;;17.30;;
3121;SDS011;1571;52.524;14.104;2023-05-07T01:25:38;22.17;;;18.67;;
3121;SDS011;1571;52.524;14.104;2023-05-07T01:28:08;23.70;;;18.27;;
3121;SDS011;1571;52.524;14.104;2023-05-07T01:30:38;19.60;;;16.80;;
3121;SDS011;1571;52.524;14.104;2023-05-07T01:33:13;24.83;;;19.00;;
3121;SDS011;1571;52.524;14.104;2023-05-07T01:35:46;20.10;;;18.00;;
3121;SDS011;1571;52.524;14.104;2023-05-07T01:38:19;25.00;;;17.60;;
3121;SDS011;1571;52.524;14.104;2023-05-07T01:40:49;18.60;;;16.70;;
3121;SDS011;1571;52.524;14.104;2023-05-07T01:43:19;23.27;;;19.73;;
3121;SDS011;1571;52.524;14.104;2023-05-07T01:45:47;23.03;;;18.50;;
3121;SDS011;1571;52.524;14.104;2023-05-07T01:48:16;23.07;;;18.80;;
3121;SDS011;1571;52.524;14.104;2023-05-07T01:50:46;22.53;;;19.50;;
3121;SDS011;1571;52.524;14.104;2023-05-07T01:53:15;22.50;;;19.13;;
3121;SDS011;1571;52.524;14.104;2023-05-07T01:55:45;21.47;;;17.30;;
3121;SDS011;1571;52.524;14.104;2023-05-07T01:58:14;21.73;;;17.83;;
3121;SDS011;1571;52.524;14.104;2023-05-07T02:00:43;21.90;;;18.10;;
3121;SDS011;1571;52.524;14.104;2023-05-07T02:03:11;22.17;;;17.40;;
3121;SDS011;1571;52.524;14.104;2023-05-07T02:05:47;21.87;;;18.57;;
3121;SDS011;1571;52.524;14.104;2023-05-07T02:08:24;21.17;;;18.27;;
3121;SDS011;1571;52.524;14.104;2023-05-07T02:10:53;21.20;;;17.43;;
3121;SDS011;1571;52.524;14.104;2023-05-07T02:13:22;19.30;;;17.30;;
3121;SDS011;1571;52.524;14.104;2023-05-07T02:15:51;18.87;;;16.63;;
3121;SDS011;1571;52.524;14.104;2023-05-07T02:18:21;21.77;;;19.47;;
3121;SDS011;1571;52.524;14.104;2023-05-07T02:20:50;24.67;;;18.07;;
3121;SDS011;1571;52.524;14.104;2023-05-07T02:23:18;23.60;;;18.17;;
3121;SDS011;1571;52.524;14.104;2023-05-07T02:25:46;21.33;;;17.53;;
3121;SDS011;1571;52.524;14.104;2023-05-07T02:28:16;19.67;;;17.57;;
3121;SDS011;1571;52.524;14.104;2023-05-07T02:30:58;20.37;;;16.80;;
3121;SDS011;1571;52.524;14.104;2023-05-07T02:33:28;22.53;;;18.30;;
3121;SDS011;1571;52.524;14.104;2023-05-07T02:36:04;20.57;;;17.53;;
3121;SDS011;1571;52.524;14.104;2023-05-07T02:38:34;21.70;;;18.00;;
3121;SDS011;1571;52.524;14.104;2023-05-07T02:41:03;21.40;;;19.00;;
3121;SDS011;1571;52.524;14.104;2023-05-07T02:43:33;20.70;;;17.87;;
3121;SDS011;1571;52.524;14.104;2023-05-07T02:46:02;19.70;;;16.63;;
3121;SDS011;1571;52.524;14.104;2023-05-07T02:48:32;24.83;;;17.97;;
3121;SDS011;1571;52.524;14.104;2023-05-07T02:51:01;21.70;;;15.73;;
3121;SDS011;1571;52.524;14.104;2023-05-07T02:53:31;24.63;;;18.33;;
3121;SDS011;1571;52.524;14.104;2023-05-07T02:56:00;17.80;;;15.87;;
3121;SDS011;1571;52.524;14.104;2023-05-07T02:58:29;20.77;;;16.90;;
3121;SDS011;1571;52.524;14.104;2023-05-07T03:01:00;21.50;;;18.57;;
3121;SDS011;1571;52.524;14.104;2023-05-07T03:03:37;19.73;;;17.57;;
3121;SDS011;1571;52.524;14.104;2023-05-07T03:06:05;21.50;;;17.63;;
3121;SDS011;1571;52.524;14.104;2023-05-07T03:08:34;23.63;;;17.70;;
3121;SDS011;1571;52.524;14.104;2023-05-07T03:11:03;20.63;;;17.30;;
3121;SDS011;1571;52.524;14.104;2023-05-07T03:13:31;19.27;;;17.10;;
3121;SDS011;1571;52.524;14.104;2023-05-07T03:16:01;20.70;;;17.40;;
3121;SDS011;1571;52.524;14.104;2023-05-07T03:18:29;19.20;;;15.90;;
3121;SDS011;1571;52.524;14.104;2023-05-07T03:20:58;17.33;;;15.57;;
3121;SDS011;1571;52.524;14.104;2023-05-07T03:23:26;16.67;;;14.87;;
3121;SDS011;1571;52.524;14.104;2023-05-07T03:25:55;18.53;;;15.60;;
3121;SDS011;1571;52.524;14.104;2023-05-07T03:28:23;18.10;;;15.83;;
3121;SDS011;1571;52.524;14.104;2023-05-07T03:30:57;16.73;;;14.63;;
3121;SDS011;1571;52.524;14.104;2023-05-07T03:33:27;16.67;;;13.90;;
3121;SDS011;1571;52.524;14.104;2023-05-07T03:35:55;15.30;;;13.07;;
3121;SDS011;1571;52.524;14.104;2023-05-07T03:38:25;14.73;;;13.17;;
3121;SDS011;1571;52.524;14.104;2023-05-07T03:40:54;17.53;;;14.10;;
3121;SDS011;1571;52.524;14.104;2023-05-07T03:43:22;15.73;;;14.10;;
3121;SDS011;1571;52.524;14.104;2023-05-07T03:45:58;17.07;;;13.97;;
3121;SDS011;1571;52.524;14.104;2023-05-07T03:48:29;15.30;;;13.50;;
3121;SDS011;1571;52.524;14.104;2023-05-07T03:50:58;15.27;;;13.10;;
3121;SDS011;1571;52.524;14.104;2023-05-07T03:53:31;13.73;;;12.00;;
3121;SDS011;1571;52.524;14.104;2023-05-07T03:56:00;16.87;;;12.50;;
3121;SDS011;1571;52.524;14.104;2023-05-07T03:58:32;14.53;;;12.03;;
3121;SDS011;1571;52.524;14.104;2023-05-07T04:01:05;12.13;;;10.80;;
3121;SDS011;1571;52.524;14.104;2023-05-07T04:03:35;15.27;;;12.40;;
3121;SDS011;1571;52.524;14.104;2023-05-07T04:06:04;12.57;;;11.37;;
3121;SDS011;1571;52.524;14.104;2023-05-07T04:08:34;15.03;;;13.33;;
3121;SDS011;1571;52.524;14.104;2023-05-07T04:11:04;14.80;;;12.20;;
3121;SDS011;1571;52.524;14.104;2023-05-07T04:13:34;14.00;;;12.50;;
3121;SDS011;1571;52.524;14.104;2023-05-07T04:16:05;13.53;;;12.13;;
3121;SDS011;1571;52.524;14.104;2023-05-07T04:18:36;13.83;;;12.50;;
3121;SDS011;1571;52.524;14.104;2023-05-07T04:21:05;14.27;;;12.70;;
3121;SDS011;1571;52.524;14.104;2023-05-07T04:23:37;16.30;;;12.23;;
3121;SDS011;1571;52.524;14.104;2023-05-07T04:26:09;14.50;;;12.10;;
3121;SDS011;1571;52.524;14.104;2023-05-07T04:28:41;15.23;;;13.70;;
3121;SDS011;1571;52.524;14.104;2023-05-07T04:31:10;15.77;;;13.47;;
3121;SDS011;1571;52.524;14.104;2023-05-07T04:33:41;19.83;;;14.47;;
3121;SDS011;1571;52.524;14.104;2023-05-07T04:36:13;18.27;;;13.90;;
3121;SDS011;1571;52.524;14.104;2023-05-07T04:38:48;18.07;;;14.10;;
3121;SDS011;1571;52.524;14.104;2023-05-07T04:41:17;16.10;;;13.50;;
3121;SDS011;1571;52.524;14.104;2023-05-07T04:43:46;14.80;;;13.07;;
3121;SDS011;1571;52.524;14.104;2023-05-07T04:46:16;18.67;;;14.30;;
3121;SDS011;1571;52.524;14.104;2023-05-07T04:48:46;18.03;;;13.87;;
3121;SDS011;1571;52.524;14.104;2023-05-07T04:51:14;14.87;;;12.80;;
3121;SDS011;1571;52.524;14.104;2023-05-07T04:53:42;16.20;;;12.87;;
3121;SDS011;1571;52.524;14.104;2023-05-07T04:56:11;15.03;;;12.87;;
3121;SDS011;1571;52.524;14.104;2023-05-07T04:58:42;15.63;;;12.43;;
3121;SDS011;1571;52.524;14.104;2023-05-07T05:01:10;16.83;;;14.23;;
3121;SDS011;1571;52.524;14.104;2023-05-07T05:03:40;19.07;;;13.77;;
3121;SDS011;1571;52.524;14.104;2023-05-07T05:06:09;15.20;;;12.80;;
3121;SDS011;1571;52.524;14.104;2023-05-07T05:08:37;15.53;;;13.13;;
3121;SDS011;1571;52.524;14.104;2023-05-07T05:11:06;16.37;;;13.10;;
3121;SDS011;1571;52.524;14.104;2023-05-07T05:13:35;15.80;;;14.10;;
3121;SDS011;1571;52.524;14.104;2023-05-07T05:16:10;15.10;;;12.17;;
3121;SDS011;1571;52.524;14.104;2023-05-07T05:18:40;12.10;;;10.90;;
3121;SDS011;1571;52.524;14.104;2023-05-07T05:21:11;14.17;;;12.20;;
3121;SDS011;1571;52.524;14.104;2023-05-07T05:23:41;14.53;;;12.40;;
3121;SDS011;1571;52.524;14.104;2023-05-07T05:26:11;16.13;;;14.50;;
3121;SDS011;1571;52.524;14.104;2023-05-07T05:28:40;16.67;;;12.37;;
3121;SDS011;1571;52.524;14.104;2023-05-07T05:31:09;13.33;;;11.80;;
3121;SDS011;1571;52.524;14.104;2023-05-07T05:33:37;13.17;;;11.70;;
3121;SDS011;1571;52.524;14.104;2023-05-07T05:36:07;15.47;;;11.43;;
3121;SDS011;1571;52.524;14.104;2023-05-07T05:38:39;15.53;;;11.67;;
3121;SDS011;1571;52.524;14.104;2023-05-07T05:41:09;15.30;;;13.60;;
3121;SDS011;1571;52.524;14.104;2023-05-07T05:43:37;12.83;;;10.47;;
3121;SDS011;1571;52.524;14.104;2023-05-07T05:46:06;14.23;;;11.47;;
3121;SDS011;1571;52.524;14.104;2023-05-07T05:48:36;13.00;;;11.70;;
3121;SDS011;1571;52.524;14.104;2023-05-07T05:51:05;13.90;;;11.30;;
3121;SDS011;1571;52.524;14.104;2023-05-07T05:53:34;14.43;;;11.53;;
3121;SDS011;1571;52.524;14.104;2023-05-07T05:56:04;14.37;;;12.80;;
3121;SDS011;1571;52.524;14.104;2023-05-07T05:58:34;11.93;;;10.80;;
3121;SDS011;1571;52.524;14.104;2023-05-07T06:01:05;13.70;;;11.40;;
3121;SDS011;1571;52.524;14.104;2023-05-07T06:03:36;13.70;;;12.30;;
3121;SDS011;1571;52.524;14.104;2023-05-07T06:06:09;12.13;;;10.93;;
3121;SDS011;1571;52.524;14.104;2023-05-07T06:08:37;11.87;;;9.80;;
3121;SDS011;1571;52.524;14.104;2023-05-07T06:11:07;10.77;;;9.77;;
3121;SDS011;1571;52.524;14.104;2023-05-07T06:13:38;12.73;;;11.53;;
3121;SDS011;1571;52.524;14.104;2023-05-07T06:16:06;12.30;;;10.20;;
3121;SDS011;1571;52.524;14.104;2023-05-07T06:18:35;10.67;;;9.57;;
3121;SDS011;1571;52.524;14.104;2023-05-07T06:21:04;11.60;;;9.97;;
3121;SDS011;1571;52.524;14.104;2023-05-07T06:23:34;12.10;;;10.60;;
3121;SDS011;1571;52.524;14.104;2023-05-07T06:26:02;14.40;;;10.70;;
3121;SDS011;1571;52.524;14.104;2023-05-07T06:28:38;12.57;;;10.90;;
3121;SDS011;1571;52.524;14.104;2023-05-07T06:31:10;16.60;;;10.07;;
3121;SDS011;1571;52.524;14.104;2023-05-07T06:33:40;11.20;;;10.20;;
3121;SDS011;1571;52.524;14.104;2023-05-07T06:36:08;10.47;;;9.43;;
3121;SDS011;1571;52.524;14.104;2023-05-07T06:38:38;10.53;;;9.20;;
3121;SDS011;1571;52.524;14.104;2023-05-07T06:41:06;9.60;;;8.80;;
3121;SDS011;1571;52.524;14.104;2023-05-07T06:43:38;10.83;;;8.77;;
3121;SDS011;1571;52.524;14.104;2023-05-07T06:46:24;13.13;;;7.60;;
3121;SDS011;1571;52.524;14.104;2023-05-07T06:48:52;9.33;;;8.30;;
3121;SDS011;1571;52.524;14.104;2023-05-07T06:51:21;8.37;;;7.63;;
3121;SDS011;1571;52.524;14.104;2023-05-07T06:53:49;9.53;;;8.60;;
3121;SDS011;1571;52.524;14.104;2023-05-07T06:56:17;11.60;;;9.00;;
3121;SDS011;1571;52.524;14.104;2023-05-07T06:58:47;9.77;;;8.77;;
3121;SDS011;1571;52.524;14.104;2023-05-07T07:01:16;9.60;;;7.70;;
3121;SDS011;1571;52.524;14.104;2023-05-07T07:03:45;6.97;;;6.00;;
3121;SDS011;1571;52.524;14.104;2023-05-07T07:06:13;6.33;;;5.73;;
3121;SDS011;1571;52.524;14.104;2023-05-07T07:08:42;9.33;;;6.33;;
3121;SDS011;1571;52.524;14.104;2023-05-07T07:11:13;6.83;;;5.60;;
3121;SDS011;1571;52.524;14.104;2023-05-07T07:13:42;6.10;;;5.50;;
3121;SDS011;1571;52.524;14.104;2023-05-07T07:16:12;7.13;;;5.37;;
3121;SDS011;1571;52.524;14.104;2023-05-07T07:18:40;10.03;;;7.03;;
3121;SDS011;1571;52.524;14.104;2023-05-07T07:21:08;6.70;;;6.10;;
3121;SDS011;1571;52.524;14.104;2023-05-07T07:23:37;6.20;;;5.50;;
3121;SDS011;1571;52.524;14.104;2023-05-07T07:26:05;6.90;;;6.20;;
3121;SDS011;1571;52.524;14.104;2023-05-07T07:28:33;6.77;;;6.10;;
3121;SDS011;1571;52.524;14.104;2023-05-07T07:31:02;6.80;;;5.13;;
3121;SDS011;1571;52.524;14.104;2023-05-07T07:33:32;5.47;;;4.93;;
3121;SDS011;1571;52.524;14.104;2023-05-07T07:36:00;6.07;;;5.07;;
3121;SDS011;1571;52.524;14.104;2023-05-07T07:38:29;6.40;;;5.33;;
3121;SDS011;1571;52.524;14.104;2023-05-07T07:40:57;4.80;;;4.40;;
3121;SDS011;1571;52.524;14.104;2023-05-07T07:43:26;4.70;;;4.30;;
3121;SDS011;1571;52.524;14.104;2023-05-07T07:45:55;5.57;;;5.07;;
3121;SDS011;1571;52.524;14.104;2023-05-07T07:48:23;5.17;;;4.77;;
3121;SDS011;1571;52.524;14.104;2023-05-07T07:50:53;4.60;;;4.20;;
3121;SDS011;1571;52.524;14.104;2023-05-07T07:53:22;4.27;;;3.87;;
3121;SDS011;1571;52.524;14.104;2023-05-07T07:55:50;5.90;;;5.07;;
3121;SDS011;1571;52.524;14.104;2023-05-07T07:58:26;4.70;;;4.20;;
3121;SDS011;1571;52.524;14.104;2023-05-07T08:00:55;4.63;;;4.10;;
3121;SDS011;1571;52.524;14.104;2023-05-07T08:03:24;4.23;;;3.93;;
3121;SDS011;1571;52.524;14.104;2023-05-07T08:05:58;5.07;;;4.57;;
3121;SDS011;1571;52.524;14.104;2023-05-07T08:08:27;4.93;;;4.53;;
3121;SDS011;1571;52.524;14.104;2023-05-07T08:10:55;5.10;;;4.60;;
3121;SDS011;1571;52.524;14.104;2023-05-07T08:13:29;6.17;;;5.07;;
3121;SDS011;1571;52.524;14.104;2023-05-07T08:15:58;4.80;;;4.30;;
3121;SDS011;1571;52.524;14.104;2023-05-07T08:18:27;6.63;;;4.67;;
3121;SDS011;1571;52.524;14.104;2023-05-07T08:21:00;4.23;;;3.83;;
3121;SDS011;1571;52.524;14.104;2023-05-07T08:23:30;4.10;;;3.70;;
3121;SDS011;1571;52.524;14.104;2023-05-07T08:25:59;4.43;;;3.83;;
3121;SDS011;1571;52.524;14.104;2023-05-07T08:28:29;3.70;;;3.40;;
3121;SDS011;1571;52.524;14.104;2023-05-07T08:30:57;3.60;;;3.30;;
3121;SDS011;1571;52.524;14.104;2023-05-07T08:33:31;4.60;;;3.20;;
3121;SDS011;1571;52.524;14.104;2023-05-07T08:36:01;3.83;;;3.50;;
3121;SDS011;1571;52.524;14.104;2023-05-07T08:38:29;4.50;;;4.20;;
3121;SDS011;1571;52.524;14.104;2023-05-07T08:40:58;3.80;;;3.10;;
3121;SDS011;1571;52.524;14.104;2023-05-07T08:43:29;3.30;;;3.00;;
3121;SDS011;1571;52.524;14.104;2023-05-07T08:46:01;2.80;;;2.20;;
3121;SDS011;1571;52.524;14.104;2023-05-07T08:48:34;3.33;;;2.30;;
3121;SDS011;1571;52.524;14.104;2023-05-07T08:51:12;2.80;;;2.43;;
3121;SDS011;1571;52.524;14.104;2023-05-07T08:53:41;3.43;;;1.70;;
3121;SDS011;1571;52.524;14.104;2023-05-07T08:56:13;4.13;;;2.90;;
3121;SDS011;1571;52.524;14.104;2023-05-07T08:58:42;2.10;;;2.00;;
3121;SDS011;1571;52.524;14.104;2023-05-07T09:01:12;2.30;;;1.73;;
3121;SDS011;1571;52.524;14.104;2023-05-07T09:03:45;1.93;;;1.83;;
3121;SDS011;1571;52.524;14.104;2023-05-07T09:06:16;3.83;;;1.40;;
3121;SDS011;1571;52.524;14.104;2023-05-07T09:08:48;1.70;;;1.60;;
3121;SDS011;1571;52.524;14.104;2023-05-07T09:11:22;2.13;;;1.80;;
3121;SDS011;1571;52.524;14.104;2023-05-07T09:13:53;1.70;;;1.60;;
3121;SDS011;1571;52.524;14.104;2023-05-07T09:16:23;1.70;;;1.40;;
3121;SDS011;1571;52.524;14.104;2023-05-07T09:18:53;5.13;;;1.97;;
3121;SDS011;1571;52.524;14.104;2023-05-07T09:21:24;4.70;;;2.13;;
3121;SDS011;1571;52.524;14.104;2023-05-07T09:23:55;2.80;;;2.57;;
3121;SDS011;1571;52.524;14.104;2023-05-07T09:26:32;2.13;;;2.00;;
3121;SDS011;1571;52.524;14.104;2023-05-07T09:29:03;1.60;;;1.47;;
3121;SDS011;1571;52.524;14.104;2023-05-07T09:31:31;2.70;;;1.30;;
3121;SDS011;1571;52.524;14.104;2023-05-07T09:33:59;1.40;;;1.30;;
3121;SDS011;1571;52.524;14.104;2023-05-07T09:36:32;1.30;;;1.20;;
3121;SDS011;1571;52.524;14.104;2023-05-07T09:39:02;6.13;;;2.23;;
3121;SDS011;1571;52.524;14.104;2023-05-07T09:41:30;1.53;;;1.43;;
3121;SDS011;1571;52.524;14.104;2023-05-07T09:44:07;1.60;;;1.50;;
3121;SDS011;1571;52.524;14.104;2023-05-07T09:46:41;1.17;;;1.07;;
3121;SDS011;1571;52.524;14.104;2023-05-07T09:49:21;1.63;;;1.40;;
3121;SDS011;1571;52.524;14.104;2023-05-07T09:51:57;1.90;;;1.67;;
3121;SDS011;1571;52.524;14.104;2023-05-07T09:54:32;2.50;;;1.43;;
3121;SDS011;1571;52.524;14.104;2023-05-07T09:57:02;4.30;;;1.80;;
3121;SDS011;1571;52.524;14.104;2023-05-07T09:59:31;3.23;;;1.83;;
3121;SDS011;1571;52.524;14.104;2023-05-07T10:02:03;1.40;;;1.23;;
3121;SDS011;1571;52.524;14.104;2023-05-07T10:04:39;1.73;;;1.50;;
3121;SDS011;1571;52.524;14.104;2023-05-07T10:07:10;3.67;;;1.60;;
3121;SDS011;1571;52.524;14.104;2023-05-07T10:09:38;2.57;;;1.30;;
3121;SDS011;1571;52.524;14.104;2023-05-07T10:12:16;1.70;;;1.53;;
3121;SDS011;1571;52.524;14.104;2023-05-07T10:14:47;1.30;;;1.10;;
3121;SDS011;1571;52.524;14.104;2023-05-07T10:17:17;1.90;;;1.70;;
3121;SDS011;1571;52.524;14.104;2023-05-07T10:19:47;1.10;;;0.90;;
3121;SDS011;1571;52.524;14.104;2023-05-07T10:22:19;2.30;;;2.10;;
3121;SDS011;1571;52.524;14.104;2023-05-07T10:24:49;1.10;;;1.10;;
3121;SDS011;1571;52.524;14.104;2023-05-07T10:27:20;3.43;;;1.13;;
3121;SDS011;1571;52.524;14.104;2023-05-07T10:30:04;1.30;;;1.20;;
3121;SDS011;1571;52.524;14.104;2023-05-07T10:32:42;3.80;;;1.67;;
3121;SDS011;1571;52.524;14.104;2023-05-07T10:35:22;2.97;;;1.43;;
3121;SDS011;1571;52.524;14.104;2023-05-07T10:37:55;1.37;;;1.27;;
3121;SDS011;1571;52.524;14.104;2023-05-07T10:40:26;1.50;;;1.40;;
3121;SDS011;1571;52.524;14.104;2023-05-07T10:42:55;2.03;;;1.50;;
3121;SDS011;1571;52.524;14.104;2023-05-07T10:45:25;2.80;;;1.40;;
3121;SDS011;1571;52.524;14.104;2023-05-07T10:48:05;1.20;;;1.10;;
3121;SDS011;1571;52.524;14.104;2023-05-07T10:54:20;2.20;;;2.07;;
3121;SDS011;1571;52.524;14.104;2023-05-07T11:03:16;1.40;;;1.30;;
3121;SDS011;1571;52.524;14.104;2023-05-07T11:06:11;1.93;;;1.07;;
3121;SDS011;1571;52.524;14.104;2023-05-07T11:09:00;2.13;;;1.47;;
3121;SDS011;1571;52.524;14.104;2023-05-07T11:11:53;1.90;;;1.40;;
3121;SDS011;1571;52.524;14.104;2023-05-07T11:14:44;1.83;;;1.57;;
3121;SDS011;1571;52.524;14.104;2023-05-07T11:17:19;2.50;;;1.90;;
3121;SDS011;1571;52.524;14.104;2023-05-07T11:19:58;2.40;;;1.50;;
3121;SDS011;1571;52.524;14.104;2023-05-07T11:22:36;3.47;;;2.33;;
3121;SDS011;1571;52.524;14.104;2023-05-07T11:25:38;2.27;;;1.50;;
3121;SDS011;1571;52.524;14.104;2023-05-07T11:28:14;1.70;;;1.60;;
3121;SDS011;1571;52.524;14.104;2023-05-07T11:30:51;2.10;;;1.90;;
3121;SDS011;1571;52.524;14.104;2023-05-07T11:33:20;2.30;;;1.40;;
3121;SDS011;1571;52.524;14.104;2023-05-07T11:35:53;3.67;;;1.10;;
3121;SDS011;1571;52.524;14.104;2023-05-07T11:38:25;3.70;;;1.50;;
3121;SDS011;1571;52.524;14.104;2023-05-07T11:40:54;2.63;;;1.30;;
3121;SDS011;1571;52.524;14.104;2023-05-07T11:43:24;2.50;;;1.40;;
3121;SDS011;1571;52.524;14.104;2023-05-07T11:45:53;1.67;;;1.20;;
3121;SDS011;1571;52.524;14.104;2023-05-07T11:48:21;1.87;;;1.47;;
3121;SDS011;1571;52.524;14.104;2023-05-07T11:50:50;1.20;;;1.10;;
3121;SDS011;1571;52.524;14.104;2023-05-07T11:53:19;3.50;;;1.27;;
3121;SDS011;1571;52.524;14.104;2023-05-07T11:55:47;2.60;;;1.83;;
3121;SDS011;1571;52.524;14.104;2023-05-07T11:58:20;1.67;;;1.30;;
3121;SDS011;1571;52.524;14.104;2023-05-07T12:00:51;2.17;;;1.70;;
3121;SDS011;1571;52.524;14.104;2023-05-07T12:03:20;6.80;;;1.80;;
3121;SDS011;1571;52.524;14.104;2023-05-07T12:05:49;5.97;;;1.40;;
3121;SDS011;1571;52.524;14.104;2023-05-07T12:08:17;3.13;;;1.20;;
3121;SDS011;1571;52.524;14.104;2023-05-07T12:10:47;1.23;;;1.13;;
3121;SDS011;1571;52.524;14.104;2023-05-07T12:13:16;2.83;;;1.60;;
3121;SDS011;1571;52.524;14.104;2023-05-07T12:15:45;1.57;;;1.47;;
3121;SDS011;1571;52.524;14.104;2023-05-07T12:18:15;1.57;;;1.50;;
3121;SDS011;1571;52.524;14.104;2023-05-07T12:20:43;2.30;;;1.20;;
3121;SDS011;1571;52.524;14.104;2023-05-07T12:23:12;2.23;;;1.10;;
3121;SDS011;1571;52.524;14.104;2023-05-07T12:25:41;3.27;;;1.70;;
3121;SDS011;1571;52.524;14.104;2023-05-07T12:28:13;1.33;;;1.23;;
3121;SDS011;1571;52.524;14.104;2023-05-07T12:30:43;1.73;;;1.40;;
3121;SDS011;1571;52.524;14.104;2023-05-07T12:33:15;2.67;;;1.87;;
3121;SDS011;1571;52.524;14.104;2023-05-07T12:35:44;3.00;;;1.40;;
3121;SDS011;1571;52.524;14.104;2023-05-07T12:38:13;2.53;;;1.67;;
3121;SDS011;1571;52.524;14.104;2023-05-07T12:40:44;1.53;;;1.43;;
3121;SDS011;1571;52.524;14.104;2023-05-07T12:43:17;1.70;;;1.10;;
3121;SDS011;1571;52.524;14.104;2023-05-07T12:45:48;10.77;;;9.17;;
3121;SDS011;1571;52.524;14.104;2023-05-07T12:48:19;0.90;;;0.90;;
3121;SDS011;1571;52.524;14.104;2023-05-07T12:50:49;1.80;;;1.60;;
3121;SDS011;1571;52.524;14.104;2023-05-07T12:53:19;1.83;;;1.40;;
3121;SDS011;1571;52.524;14.104;2023-05-07T12:55:49;1.30;;;1.20;;
3121;SDS011;1571;52.524;14.104;2023-05-07T12:58:19;2.20;;;1.00;;
3121;SDS011;1571;52.524;14.104;2023-05-07T13:00:49;2.00;;;1.10;;
3121;SDS011;1571;52.524;14.104;2023-05-07T13:03:23;0.73;;;0.73;;
3121;SDS011;1571;52.524;14.104;2023-05-07T13:05:52;0.70;;;0.70;;
3121;SDS011;1571;52.524;14.104;2023-05-07T13:08:28;0.97;;;0.97;;
3121;SDS011;1571;52.524;14.104;2023-05-07T13:10:58;1.37;;;1.10;;
3121;SDS011;1571;52.524;14.104;2023-05-07T13:13:29;1.20;;;0.90;;
3121;SDS011;1571;52.524;14.104;2023-05-07T13:15:58;0.90;;;0.90;;
3121;SDS011;1571;52.524;14.104;2023-05-07T13:18:30;2.27;;;1.00;;
3121;SDS011;1571;52.524;14.104;2023-05-07T13:21:00;0.97;;;0.70;;
3121;SDS011;1571;52.524;14.104;2023-05-07T13:23:29;0.93;;;0.93;;
3121;SDS011;1571;52.524;14.104;2023-05-07T13:25:58;1.03;;;0.73;;
3121;SDS011;1571;52.524;14.104;2023-05-07T13:28:34;0.80;;;0.73;;
3121;SDS011;1571;52.524;14.104;2023-05-07T13:31:02;1.00;;;0.70;;
3121;SDS011;1571;52.524;14.104;2023-05-07T13:33:32;1.00;;;1.00;;
3121;SDS011;1571;52.524;14.104;2023-05-07T13:36:00;2.10;;;0.67;;
3121;SDS011;1571;52.524;14.104;2023-05-07T13:38:34;2.00;;;0.80;;
3121;SDS011;1571;52.524;14.104;2023-05-07T13:41:02;0.80;;;0.77;;
3121;SDS011;1571;52.524;14.104;2023-05-07T13:43:30;1.73;;;1.17;;
3121;SDS011;1571;52.524;14.104;2023-05-07T13:46:00;2.30;;;1.10;;
3121;SDS011;1571;52.524;14.104;2023-05-07T13:48:28;0.90;;;0.90;;
3121;SDS011;1571;52.524;14.104;2023-05-07T13:50:58;3.27;;;0.80;;
3121;SDS011;1571;52.524;14.104;2023-05-07T13:53:26;0.83;;;0.73;;
3121;SDS011;1571;52.524;14.104;2023-05-07T13:55:54;0.70;;;0.70;;
3121;SDS011;1571;52.524;14.104;2023-05-07T13:58:22;0.80;;;0.80;;
3121;SDS011;1571;52.524;14.104;2023-05-07T14:00:51;4.70;;;0.90;;
3121;SDS011;1571;52.524;14.104;2023-05-07T14:03:19;0.70;;;0.60;;
3121;SDS011;1571;52.524;14.104;2023-05-07T14:05:48;1.30;;;0.80;;
3121;SDS011;1571;52.524;14.104;2023-05-07T14:08:17;0.70;;;0.70;;
3121;SDS011;1571;52.524;14.104;2023-05-07T14:10:46;1.33;;;0.70;;
3121;SDS011;1571;52.524;14.104;2023-05-07T14:13:14;2.10;;;0.80;;
3121;SDS011;1571;52.524;14.104;2023-05-07T14:15:43;1.50;;;1.00;;
3121;SDS011;1571;52.524;14.104;2023-05-07T14:18:13;1.80;;;0.80;;
3121;SDS011;1571;52.524;14.104;2023-05-07T14:20:41;1.13;;;0.70;;
3121;SDS011;1571;52.524;14.104;2023-05-07T14:23:10;1.57;;;1.00;;
3121;SDS011;1571;52.524;14.104;2023-05-07T14:25:40;1.33;;;0.83;;
3121;SDS011;1571;52.524;14.104;2023-05-07T14:28:10;0.80;;;0.80;;
3121;SDS011;1571;52.524;14.104;2023-05-07T14:30:38;1.70;;;0.90;;
3121;SDS011;1571;52.524;14.104;2023-05-07T14:33:06;10.00;;;6.80;;
3121;SDS011;1571;52.524;14.104;2023-05-07T14:35:34;2.30;;;2.20;;
3121;SDS011;1571;52.524;14.104;2023-05-07T14:38:03;0.83;;;0.83;;
3121;SDS011;1571;52.524;14.104;2023-05-07T14:40:31;2.43;;;0.90;;
3121;SDS011;1571;52.524;14.104;2023-05-07T14:43:01;1.10;;;0.80;;
3121;SDS011;1571;52.524;14.104;2023-05-07T14:45:29;0.73;;;0.70;;
3121;SDS011;1571;52.524;14.104;2023-05-07T14:47:57;0.80;;;0.80;;
3121;SDS011;1571;52.524;14.104;2023-05-07T14:50:25;3.03;;;1.53;;
3121;SDS011;1571;52.524;14.104;2023-05-07T14:52:54;1.87;;;0.90;;
3121;SDS011;1571;52.524;14.104;2023-05-07T14:55:22;1.67;;;0.90;;
3121;SDS011;1571;52.524;14.104;2023-05-07T14:57:50;0.60;;;0.60;;
3121;SDS011;1571;52.524;14.104;2023-05-07T15:00:20;1.50;;;0.83;;
3121;SDS011;1571;52.524;14.104;2023-05-07T15:02:48;1.47;;;0.80;;
3121;SDS011;1571;52.524;14.104;2023-05-07T15:05:17;1.00;;;0.70;;
3121;SDS011;1571;52.524;14.104;2023-05-07T15:07:46;0.70;;;0.70;;
3121;SDS011;1571;52.524;14.104;2023-05-07T15:10:14;1.30;;;0.77;;
3121;SDS011;1571;52.524;14.104;2023-05-07T15:12:42;0.70;;;0.70;;
3121;SDS011;1571;52.524;14.104;2023-05-07T15:15:10;1.23;;;0.90;;
3121;SDS011;1571;52.524;14.104;2023-05-07T15:17:40;0.63;;;0.60;;
3121;SDS011;1571;52.524;14.104;2023-05-07T15:20:09;1.30;;;0.80;;